sensor_id;sensor_type;location;lat;lon;timestamp;pressure;altitude;pressure_sealevel;temperature;humidity
77639;BME280;66802;52.574;14.398;2023-05-07T03:00:41;102374.19;;;7.36;86.20
77639;BME280;66802;52.574;14.398;2023-05-07T03:03:07;102370.66;;;7.36;85.79
77639;BME280;66802;52.574;14.398;2023-05-07T03:05:32;102378.06;;;7.32;86.15
77639;BME280;66802;52.574;14.398;2023-05-07T03:07:58;102379.00;;;7.31;85.71
77639;BME280;66802;52.574;14.398;2023-05-07T03:10:23;102376.50;;;7.28;85.92
77639;BME280;66802;52.574;14.398;2023-05-07T03:12:49;102374.59;;;7.30;85.94
77639;BME280;66802;52.574;14.398;2023-05-07T03:15:15;102380.81;;;7.30;86.11
77639;BME280;66802;52.574;14.398;2023-05-07T03:17:40;102387.41;;;7.25;86.18
77639;BME280;66802;52.574;14.398;2023-05-07T03:20:06;102392.53;;;7.29;86.29
77639;BME280;66802;52.574;14.398;2023-05-07T03:22:32;102392.34;;;7.32;85.78
77639;BME280;66802;52.574;14.398;2023-05-07T03:24:58;102397.81;;;7.31;85.93
77639;BME280;66802;52.574;14.398;2023-05-07T03:27:23;102395.47;;;7.25;85.62
77639;BME280;66802;52.574;14.398;2023-05-07T03:29:49;102391.56;;;7.30;85.68
77639;BME280;66802;52.574;14.398;2023-05-07T03:32:15;102396.06;;;7.30;85.69
77639;BME280;66802;52.574;14.398;2023-05-07T03:34:41;102405.00;;;7.30;85.47
77639;BME280;66802;52.574;14.398;2023-05-07T03:37:06;102402.22;;;7.32;85.43
77639;BME280;66802;52.574;14.398;2023-05-07T03:39:32;102399.44;;;7.33;85.32
77639;BME280;66802;52.574;14.398;2023-05-07T03:41:57;102402.50;;;7.27;85.30
77639;BME280;66802;52.574;14.398;2023-05-07T03:44:23;102402.97;;;7.20;86.06
77639;BME280;66802;52.574;14.398;2023-05-07T03:46:49;102398.38;;;7.22;85.28
77639;BME280;66802;52.574;14.398;2023-05-07T03:49:14;102399.03;;;7.25;85.70
77639;BME280;66802;52.574;14.398;2023-05-07T03:51:40;102405.25;;;7.26;85.58
77639;BME280;66802;52.574;14.398;2023-05-07T03:54:05;102405.66;;;7.20;85.18
77639;BME280;66802;52.574;14.398;2023-05-07T03:56:31;102407.78;;;7.29;85.38
77639;BME280;66802;52.574;14.398;2023-05-07T03:58:57;102411.88;;;7.20;85.57
77639;BME280;66802;52.574;14.398;2023-05-07T04:01:22;102398.72;;;7.16;85.69
77639;BME280;66802;52.574;14.398;2023-05-07T04:03:48;102413.63;;;7.21;85.89
77639;BME280;66802;52.574;14.398;2023-05-07T04:06:15;102417.66;;;7.28;85.50
77639;BME280;66802;52.574;14.398;2023-05-07T04:08:41;102417.47;;;7.31;84.98
77639;BME280;66802;52.574;14.398;2023-05-07T04:11:19;102417.66;;;7.28;85.28
77639;BME280;66802;52.574;14.398;2023-05-07T04:13:45;102418.59;;;7.27;85.40
77639;BME280;66802;52.574;14.398;2023-05-07T04:16:11;102414.88;;;7.30;85.42
77639;BME280;66802;52.574;14.398;2023-05-07T04:18:36;102407.72;;;7.45;85.16
77639;BME280;66802;52.574;14.398;2023-05-07T04:21:02;102411.75;;;7.52;84.93
77639;BME280;66802;52.574;14.398;2023-05-07T04:23:28;102415.88;;;7.57;84.40
77639;BME280;66802;52.574;14.398;2023-05-07T04:25:53;102413.09;;;7.59;84.12
77639;BME280;66802;52.574;14.398;2023-05-07T04:28:19;102413.88;;;7.61;83.84
77639;BME280;66802;52.574;14.398;2023-05-07T04:30:46;102413.09;;;7.59;84.03
77639;BME280;66802;52.574;14.398;2023-05-07T04:33:11;102419.84;;;7.66;83.61
77639;BME280;66802;52.574;14.398;2023-05-07T04:35:37;102414.09;;;7.72;83.16
77639;BME280;66802;52.574;14.398;2023-05-07T04:38:05;102426.38;;;7.76;82.02
77639;BME280;66802;52.574;14.398;2023-05-07T04:40:32;102427.69;;;7.69;82.30
77639;BME280;66802;52.574;14.398;2023-05-07T04:42:58;102434.59;;;7.59;82.82
77639;BME280;66802;52.574;14.398;2023-05-07T04:45:23;102430.84;;;7.47;82.78
77639;BME280;66802;52.574;14.398;2023-05-07T04:47:49;102430.34;;;7.41;83.62
77639;BME280;66802;52.574;14.398;2023-05-07T04:50:15;102433.13;;;7.39;83.36
77639;BME280;66802;52.574;14.398;2023-05-07T04:52:40;102437.63;;;7.39;83.92
77639;BME280;66802;52.574;14.398;2023-05-07T04:55:06;102436.09;;;7.35;84.07
77639;BME280;66802;52.574;14.398;2023-05-07T04:57:32;102434.28;;;7.35;83.49
77639;BME280;66802;52.574;14.398;2023-05-07T04:59:58;102441.47;;;7.35;83.67
77639;BME280;66802;52.574;14.398;2023-05-07T05:02:23;102446.06;;;7.32;83.78
77639;BME280;66802;52.574;14.398;2023-05-07T05:04:49;102439.84;;;7.32;84.42
77639;BME280;66802;52.574;14.398;2023-05-07T05:07:14;102446.47;;;7.41;83.97
77639;BME280;66802;52.574;14.398;2023-05-07T05:09:40;102451.16;;;7.37;83.30
77639;BME280;66802;52.574;14.398;2023-05-07T05:12:05;102453.84;;;7.37;83.87
77639;BME280;66802;52.574;14.398;2023-05-07T05:14:32;102450.50;;;7.33;84.06
77639;BME280;66802;52.574;14.398;2023-05-07T05:16:58;102455.09;;;7.31;83.96
77639;BME280;66802;52.574;14.398;2023-05-07T05:19:23;102458.16;;;7.40;83.92
77639;BME280;66802;52.574;14.398;2023-05-07T05:21:49;102457.69;;;7.47;83.99
77639;BME280;66802;52.574;14.398;2023-05-07T05:24:14;102461.84;;;7.53;84.13
77639;BME280;66802;52.574;14.398;2023-05-07T05:26:40;102459.00;;;7.56;83.91
77639;BME280;66802;52.574;14.398;2023-05-07T05:29:06;102466.47;;;7.51;84.04
77639;BME280;66802;52.574;14.398;2023-05-07T05:31:33;102470.22;;;7.62;83.28
77639;BME280;66802;52.574;14.398;2023-05-07T05:33:58;102463.91;;;7.63;83.63
77639;BME280;66802;52.574;14.398;2023-05-07T05:36:24;102466.28;;;7.68;83.33
77639;BME280;66802;52.574;14.398;2023-05-07T05:38:50;102474.56;;;7.65;83.50
77639;BME280;66802;52.574;14.398;2023-05-07T05:41:15;102462.75;;;7.82;83.20
77639;BME280;66802;52.574;14.398;2023-05-07T05:43:41;102468.66;;;7.88;83.18
77639;BME280;66802;52.574;14.398;2023-05-07T05:46:06;102465.00;;;7.89;83.14
77639;BME280;66802;52.574;14.398;2023-05-07T05:48:34;102462.97;;;7.93;83.71
77639;BME280;66802;52.574;14.398;2023-05-07T05:50:59;102452.72;;;7.99;83.18
77639;BME280;66802;52.574;14.398;2023-05-07T05:53:25;102462.69;;;8.12;83.31
77639;BME280;66802;52.574;14.398;2023-05-07T05:55:51;102461.81;;;8.25;82.48
77639;BME280;66802;52.574;14.398;2023-05-07T05:58:16;102472.03;;;8.34;82.02
77639;BME280;66802;52.574;14.398;2023-05-07T06:00:42;102472.69;;;8.38;82.49
77639;BME280;66802;52.574;14.398;2023-05-07T06:03:08;102463.50;;;8.42;82.13
77639;BME280;66802;52.574;14.398;2023-05-07T06:05:33;102470.00;;;8.52;81.56
77639;BME280;66802;52.574;14.398;2023-05-07T06:07:59;102473.16;;;8.45;80.76
77639;BME280;66802;52.574;14.398;2023-05-07T06:10:24;102471.84;;;8.52;81.41
77639;BME280;66802;52.574;14.398;2023-05-07T06:12:51;102470.81;;;8.67;81.01
77639;BME280;66802;52.574;14.398;2023-05-07T06:15:17;102471.31;;;8.73;80.54
77639;BME280;66802;52.574;14.398;2023-05-07T06:17:42;102462.31;;;8.87;80.07
77639;BME280;66802;52.574;14.398;2023-05-07T06:20:08;102468.31;;;9.05;79.66
77639;BME280;66802;52.574;14.398;2023-05-07T06:22:34;102462.66;;;9.22;78.98
77639;BME280;66802;52.574;14.398;2023-05-07T06:24:59;102475.78;;;9.14;77.69
77639;BME280;66802;52.574;14.398;2023-05-07T06:27:25;102470.00;;;9.33;76.76
77639;BME280;66802;52.574;14.398;2023-05-07T06:29:51;102473.38;;;9.36;77.41
77639;BME280;66802;52.574;14.398;2023-05-07T06:32:16;102471.91;;;9.58;77.72
77639;BME280;66802;52.574;14.398;2023-05-07T06:34:42;102476.13;;;9.74;75.76
77639;BME280;66802;52.574;14.398;2023-05-07T06:37:08;102478.50;;;9.66;75.04
77639;BME280;66802;52.574;14.398;2023-05-07T06:39:34;102467.72;;;9.66;75.24
77639;BME280;66802;52.574;14.398;2023-05-07T06:42:00;102473.69;;;9.84;75.95
77639;BME280;66802;52.574;14.398;2023-05-07T06:44:26;102481.03;;;9.95;73.96
77639;BME280;66802;52.574;14.398;2023-05-07T06:46:51;102482.00;;;9.94;73.93
77639;BME280;66802;52.574;14.398;2023-05-07T06:49:17;102487.25;;;10.08;74.41
77639;BME280;66802;52.574;14.398;2023-05-07T06:51:42;102486.88;;;10.27;74.72
77639;BME280;66802;52.574;14.398;2023-05-07T06:54:08;102493.00;;;10.41;72.46
77639;BME280;66802;52.574;14.398;2023-05-07T06:56:34;102490.00;;;10.20;72.29
77639;BME280;66802;52.574;14.398;2023-05-07T06:59:01;102487.19;;;10.35;71.81
77639;BME280;66802;52.574;14.398;2023-05-07T07:01:27;102496.56;;;10.42;73.01
77639;BME280;66802;52.574;14.398;2023-05-07T07:03:53;102483.91;;;10.42;71.89
77639;BME280;66802;52.574;14.398;2023-05-07T07:06:18;102489.81;;;10.60;71.54
77639;BME280;66802;52.574;14.398;2023-05-07T07:08:44;102487.53;;;10.67;70.40
77639;BME280;66802;52.574;14.398;2023-05-07T07:11:10;102495.66;;;10.67;70.24
77639;BME280;66802;52.574;14.398;2023-05-07T07:13:36;102497.03;;;10.72;70.79
77639;BME280;66802;52.574;14.398;2023-05-07T07:16:02;102499.00;;;10.70;71.11
77639;BME280;66802;52.574;14.398;2023-05-07T07:18:28;102496.66;;;10.89;70.78
77639;BME280;66802;52.574;14.398;2023-05-07T07:20:53;102499.88;;;10.94;70.01
77639;BME280;66802;52.574;14.398;2023-05-07T07:23:19;102496.66;;;10.89;71.96
77639;BME280;66802;52.574;14.398;2023-05-07T07:25:45;102501.81;;;10.92;70.46
77639;BME280;66802;52.574;14.398;2023-05-07T07:28:11;102496.06;;;10.73;70.31
77639;BME280;66802;52.574;14.398;2023-05-07T07:30:38;102496.06;;;10.73;71.32
77639;BME280;66802;52.574;14.398;2023-05-07T07:33:04;102500.16;;;10.79;70.90
77639;BME280;66802;52.574;14.398;2023-05-07T07:35:31;102507.03;;;10.83;71.05
77639;BME280;66802;52.574;14.398;2023-05-07T07:37:57;102501.59;;;10.95;70.27
77639;BME280;66802;52.574;14.398;2023-05-07T07:40:22;102512.47;;;11.07;70.29
77639;BME280;66802;52.574;14.398;2023-05-07T07:42:48;102505.75;;;10.88;69.84
77639;BME280;66802;52.574;14.398;2023-05-07T07:45:13;102513.84;;;10.88;71.15
77639;BME280;66802;52.574;14.398;2023-05-07T07:47:40;102517.84;;;10.83;71.73
77639;BME280;66802;52.574;14.398;2023-05-07T07:50:06;102516.44;;;10.90;70.96
77639;BME280;66802;52.574;14.398;2023-05-07T07:52:32;102519.16;;;11.38;71.21
77639;BME280;66802;52.574;14.398;2023-05-07T07:54:58;102509.94;;;11.99;68.41
77639;BME280;66802;52.574;14.398;2023-05-07T07:57:24;102508.97;;;12.33;65.63
77639;BME280;66802;52.574;14.398;2023-05-07T07:59:49;102515.34;;;11.99;66.15
77639;BME280;66802;52.574;14.398;2023-05-07T08:02:15;102524.59;;;11.73;65.38
77639;BME280;66802;52.574;14.398;2023-05-07T08:04:42;102519.41;;;11.69;66.70
77639;BME280;66802;52.574;14.398;2023-05-07T08:07:09;102530.84;;;11.73;66.05
77639;BME280;66802;52.574;14.398;2023-05-07T08:09:36;102526.66;;;11.69;66.46
77639;BME280;66802;52.574;14.398;2023-05-07T08:12:02;102524.59;;;11.73;66.44
77639;BME280;66802;52.574;14.398;2023-05-07T08:14:28;102524.22;;;11.66;66.10
77639;BME280;66802;52.574;14.398;2023-05-07T08:16:54;102525.56;;;11.71;66.97
77639;BME280;66802;52.574;14.398;2023-05-07T08:19:20;102532.28;;;11.90;66.65
77639;BME280;66802;52.574;14.398;2023-05-07T08:21:46;102529.94;;;11.85;65.89
77639;BME280;66802;52.574;14.398;2023-05-07T08:24:14;102535.38;;;11.85;67.09
77639;BME280;66802;52.574;14.398;2023-05-07T08:26:40;102535.28;;;11.98;66.93
77639;BME280;66802;52.574;14.398;2023-05-07T08:29:06;102531.53;;;11.77;66.92
77639;BME280;66802;52.574;14.398;2023-05-07T08:31:31;102538.22;;;11.71;66.97
77639;BME280;66802;52.574;14.398;2023-05-07T08:33:58;102537.69;;;11.79;64.71
77639;BME280;66802;52.574;14.398;2023-05-07T08:36:24;102536.69;;;11.80;64.68
77639;BME280;66802;52.574;14.398;2023-05-07T08:38:51;102537.09;;;11.86;64.31
77639;BME280;66802;52.574;14.398;2023-05-07T08:41:17;102530.59;;;11.89;64.50
77639;BME280;66802;52.574;14.398;2023-05-07T08:43:47;102522.66;;;12.32;65.15
77639;BME280;66802;52.574;14.398;2023-05-07T08:46:20;102531.91;;;12.74;63.43
77639;BME280;66802;52.574;14.398;2023-05-07T08:48:50;102535.53;;;13.06;62.30
77639;BME280;66802;52.574;14.398;2023-05-07T08:51:19;102530.59;;;13.00;60.07
77639;BME280;66802;52.574;14.398;2023-05-07T08:53:46;102533.84;;;12.83;60.61
77639;BME280;66802;52.574;14.398;2023-05-07T08:56:14;102536.94;;;12.56;61.86
77639;BME280;66802;52.574;14.398;2023-05-07T08:58:45;102541.13;;;12.60;62.35
77639;BME280;66802;52.574;14.398;2023-05-07T09:01:16;102533.13;;;12.36;61.42
77639;BME280;66802;52.574;14.398;2023-05-07T09:03:45;102534.59;;;12.40;62.84
77639;BME280;66802;52.574;14.398;2023-05-07T09:06:11;102535.06;;;12.46;62.21
77639;BME280;66802;52.574;14.398;2023-05-07T09:08:37;102541.88;;;12.62;61.89
77639;BME280;66802;52.574;14.398;2023-05-07T09:11:02;102526.47;;;12.52;61.35
77639;BME280;66802;52.574;14.398;2023-05-07T09:13:29;102534.59;;;12.29;62.96
77639;BME280;66802;52.574;14.398;2023-05-07T09:15:55;102537.06;;;12.21;62.14
77639;BME280;66802;52.574;14.398;2023-05-07T09:18:23;102533.25;;;12.46;62.78
77639;BME280;66802;52.574;14.398;2023-05-07T09:20:49;102528.78;;;12.90;59.94
77639;BME280;66802;52.574;14.398;2023-05-07T09:23:16;102525.31;;;12.88;60.23
77639;BME280;66802;52.574;14.398;2023-05-07T09:25:41;102523.88;;;12.50;61.25
77639;BME280;66802;52.574;14.398;2023-05-07T09:28:07;102525.59;;;12.29;61.49
77639;BME280;66802;52.574;14.398;2023-05-07T09:30:35;102531.16;;;12.38;61.09
77639;BME280;66802;52.574;14.398;2023-05-07T09:33:03;102525.97;;;12.80;61.28
77639;BME280;66802;52.574;14.398;2023-05-07T09:35:30;102527.31;;;12.97;59.15
77639;BME280;66802;52.574;14.398;2023-05-07T09:37:57;102526.75;;;13.25;58.91
77639;BME280;66802;52.574;14.398;2023-05-07T09:40:26;102525.66;;;13.60;58.46
77639;BME280;66802;52.574;14.398;2023-05-07T09:42:52;102532.41;;;13.33;57.30
77639;BME280;66802;52.574;14.398;2023-05-07T09:45:28;102533.06;;;13.26;59.18
77639;BME280;66802;52.574;14.398;2023-05-07T09:47:58;102540.31;;;13.25;60.07
77639;BME280;66802;52.574;14.398;2023-05-07T09:50:29;102543.56;;;13.08;58.57
77639;BME280;66802;52.574;14.398;2023-05-07T09:52:56;102537.75;;;13.24;59.30
77639;BME280;66802;52.574;14.398;2023-05-07T09:55:22;102534.91;;;13.57;57.94
77639;BME280;66802;52.574;14.398;2023-05-07T09:57:52;102539.72;;;13.22;57.56
77639;BME280;66802;52.574;14.398;2023-05-07T10:00:20;102536.88;;;13.12;56.99
77639;BME280;66802;52.574;14.398;2023-05-07T10:02:50;102530.84;;;13.20;58.31
77639;BME280;66802;52.574;14.398;2023-05-07T10:05:21;102523.00;;;13.69;58.68
77639;BME280;66802;52.574;14.398;2023-05-07T10:07:48;102531.91;;;14.13;58.91
77639;BME280;66802;52.574;14.398;2023-05-07T10:10:15;102518.66;;;14.80;59.14
77639;BME280;66802;52.574;14.398;2023-05-07T10:12:42;102514.28;;;15.08;56.22
77639;BME280;66802;52.574;14.398;2023-05-07T10:15:28;102527.03;;;15.17;56.51
77639;BME280;66802;52.574;14.398;2023-05-07T10:17:55;102516.41;;;15.05;52.94
77639;BME280;66802;52.574;14.398;2023-05-07T10:20:27;102512.91;;;15.23;53.13
77639;BME280;66802;52.574;14.398;2023-05-07T10:22:55;102515.88;;;15.11;53.33
77639;BME280;66802;52.574;14.398;2023-05-07T10:25:28;102517.47;;;15.23;52.04
77639;BME280;66802;52.574;14.398;2023-05-07T10:28:00;102519.75;;;15.27;53.31
77639;BME280;66802;52.574;14.398;2023-05-07T10:30:38;102524.94;;;15.30;52.62
77639;BME280;66802;52.574;14.398;2023-05-07T10:33:09;102523.66;;;15.34;50.56
77639;BME280;66802;52.574;14.398;2023-05-07T10:35:41;102524.09;;;15.59;49.84
77639;BME280;66802;52.574;14.398;2023-05-07T10:38:08;102526.25;;;15.75;49.62
77639;BME280;66802;52.574;14.398;2023-05-07T10:40:34;102534.31;;;15.57;51.90
77639;BME280;66802;52.574;14.398;2023-05-07T10:43:02;102522.34;;;15.39;50.70
77639;BME280;66802;52.574;14.398;2023-05-07T10:45:30;102526.06;;;15.47;52.43
77639;BME280;66802;52.574;14.398;2023-05-07T10:48:13;102518.66;;;15.59;49.39
77639;BME280;66802;52.574;14.398;2023-05-07T10:50:45;102514.34;;;15.85;49.00
77639;BME280;66802;52.574;14.398;2023-05-07T10:55:48;102527.50;;;15.22;48.98
77639;BME280;66802;52.574;14.398;2023-05-07T10:58:24;102524.16;;;15.00;50.06
77639;BME280;66802;52.574;14.398;2023-05-07T11:00:57;102523.47;;;15.26;48.29
77639;BME280;66802;52.574;14.398;2023-05-07T11:03:23;102520.34;;;15.21;51.52
77639;BME280;66802;52.574;14.398;2023-05-07T11:06:12;102522.22;;;15.40;49.82
77639;BME280;66802;52.574;14.398;2023-05-07T11:11:16;102512.19;;;15.79;50.49
77639;BME280;66802;52.574;14.398;2023-05-07T11:13:48;102523.19;;;15.20;50.25
77639;BME280;66802;52.574;14.398;2023-05-07T11:16:23;102522.44;;;14.98;49.96
77639;BME280;66802;52.574;14.398;2023-05-07T11:18:54;102517.41;;;15.04;52.28
77639;BME280;66802;52.574;14.398;2023-05-07T11:24:01;102518.34;;;15.43;50.17
77639;BME280;66802;52.574;14.398;2023-05-07T11:26:30;102518.88;;;15.17;50.36
77639;BME280;66802;52.574;14.398;2023-05-07T11:28:57;102513.13;;;14.91;52.50
77639;BME280;66802;52.574;14.398;2023-05-07T11:31:26;102515.94;;;14.80;50.25
77639;BME280;66802;52.574;14.398;2023-05-07T11:33:54;102502.50;;;14.79;51.14
77639;BME280;66802;52.574;14.398;2023-05-07T11:36:21;102503.91;;;14.83;52.12
77639;BME280;66802;52.574;14.398;2023-05-07T11:38:47;102502.25;;;15.01;49.69
77639;BME280;66802;52.574;14.398;2023-05-07T11:41:13;102506.00;;;15.10;50.63
77639;BME280;66802;52.574;14.398;2023-05-07T11:43:56;102502.50;;;15.57;49.44
77639;BME280;66802;52.574;14.398;2023-05-07T11:46:22;102508.59;;;15.98;50.94
77639;BME280;66802;52.574;14.398;2023-05-07T11:48:48;102501.47;;;15.87;50.70
77639;BME280;66802;52.574;14.398;2023-05-07T11:51:19;102501.03;;;15.82;47.49
77639;BME280;66802;52.574;14.398;2023-05-07T11:53:45;102504.59;;;15.83;48.07
77639;BME280;66802;52.574;14.398;2023-05-07T11:56:12;102526.63;;;15.22;47.67
77639;BME280;66802;52.574;14.398;2023-05-07T11:58:39;102524.03;;;15.01;48.21
77639;BME280;66802;52.574;14.398;2023-05-07T12:01:08;102518.13;;;14.96;49.60
77639;BME280;66802;52.574;14.398;2023-05-07T12:03:37;102508.88;;;15.18;49.50
77639;BME280;66802;52.574;14.398;2023-05-07T12:06:08;102516.25;;;15.56;47.79
77639;BME280;66802;52.574;14.398;2023-05-07T12:08:41;102510.44;;;16.07;48.43
77639;BME280;66802;52.574;14.398;2023-05-07T12:11:22;102511.09;;;16.28;47.87
77639;BME280;66802;52.574;14.398;2023-05-07T12:13:47;102518.63;;;16.07;46.58
77639;BME280;66802;52.574;14.398;2023-05-07T12:16:14;102526.34;;;16.02;46.97
77639;BME280;66802;52.574;14.398;2023-05-07T12:18:40;102527.69;;;15.59;47.82
77639;BME280;66802;52.574;14.398;2023-05-07T12:21:07;102526.66;;;15.51;48.82
77639;BME280;66802;52.574;14.398;2023-05-07T12:23:35;102520.38;;;15.79;48.11
77639;BME280;66802;52.574;14.398;2023-05-07T12:26:02;102530.41;;;15.98;47.68
77639;BME280;66802;52.574;14.398;2023-05-07T12:28:28;102526.38;;;15.83;46.75
77639;BME280;66802;52.574;14.398;2023-05-07T12:30:54;102521.97;;;15.72;46.96
77639;BME280;66802;52.574;14.398;2023-05-07T12:33:25;102533.00;;;15.61;47.56
77639;BME280;66802;52.574;14.398;2023-05-07T12:35:53;102535.44;;;15.64;46.42
77639;BME280;66802;52.574;14.398;2023-05-07T12:38:19;102534.09;;;15.29;48.96
77639;BME280;66802;52.574;14.398;2023-05-07T12:40:53;102531.47;;;15.09;48.52
77639;BME280;66802;52.574;14.398;2023-05-07T12:43:29;102526.75;;;15.11;49.19
77639;BME280;66802;52.574;14.398;2023-05-07T12:46:01;102528.03;;;15.07;50.43
77639;BME280;66802;52.574;14.398;2023-05-07T12:48:27;102530.75;;;15.16;50.07
77639;BME280;66802;52.574;14.398;2023-05-07T12:50:53;102526.63;;;15.22;48.33
77639;BME280;66802;52.574;14.398;2023-05-07T12:53:22;102526.19;;;15.17;49.43
77639;BME280;66802;52.574;14.398;2023-05-07T12:55:49;102520.47;;;15.10;48.82
77639;BME280;66802;52.574;14.398;2023-05-07T12:58:17;102517.69;;;14.91;48.99
77639;BME280;66802;52.574;14.398;2023-05-07T13:00:44;102522.66;;;14.76;50.93
77639;BME280;66802;52.574;14.398;2023-05-07T13:03:11;102527.88;;;14.98;52.06
77639;BME280;66802;52.574;14.398;2023-05-07T13:05:37;102524.59;;;15.14;49.90
77639;BME280;66802;52.574;14.398;2023-05-07T13:08:02;102524.03;;;15.01;49.49
77639;BME280;66802;52.574;14.398;2023-05-07T13:10:28;102514.88;;;15.02;49.65
77639;BME280;66802;52.574;14.398;2023-05-07T13:12:54;102519.84;;;14.97;50.65
77639;BME280;66802;52.574;14.398;2023-05-07T13:15:20;102517.25;;;14.95;49.74
77639;BME280;66802;52.574;14.398;2023-05-07T13:17:47;102530.56;;;14.89;50.96
77639;BME280;66802;52.574;14.398;2023-05-07T13:20:12;102520.53;;;14.80;49.72
77639;BME280;66802;52.574;14.398;2023-05-07T13:22:39;102518.22;;;14.85;50.12
77639;BME280;66802;52.574;14.398;2023-05-07T13:25:05;102505.88;;;15.21;51.65
77639;BME280;66802;52.574;14.398;2023-05-07T13:27:31;102504.16;;;15.39;51.70
77639;BME280;66802;52.574;14.398;2023-05-07T13:29:57;102512.19;;;15.41;50.28
77639;BME280;66802;52.574;14.398;2023-05-07T13:32:22;102511.44;;;15.19;49.93
77639;BME280;66802;52.574;14.398;2023-05-07T13:34:48;102513.69;;;15.05;51.47
77639;BME280;66802;52.574;14.398;2023-05-07T13:37:14;102504.53;;;15.06;50.29
77639;BME280;66802;52.574;14.398;2023-05-07T13:39:39;102513.16;;;15.01;50.30
77639;BME280;66802;52.574;14.398;2023-05-07T13:42:06;102512.91;;;15.23;49.50
77639;BME280;66802;52.574;14.398;2023-05-07T13:44:31;102511.97;;;15.04;49.44
77639;BME280;66802;52.574;14.398;2023-05-07T13:46:57;102507.84;;;15.09;49.80
77639;BME280;66802;52.574;14.398;2023-05-07T13:49:23;102507.25;;;15.06;50.61
77639;BME280;66802;52.574;14.398;2023-05-07T13:51:49;102514.69;;;15.04;50.99
77639;BME280;66802;52.574;14.398;2023-05-07T13:54:15;102508.31;;;15.24;51.18
77639;BME280;66802;52.574;14.398;2023-05-07T13:56:41;102518.34;;;15.33;51.05
77639;BME280;66802;52.574;14.398;2023-05-07T13:59:07;102518.84;;;14.98;50.00
77639;BME280;66802;52.574;14.398;2023-05-07T14:01:32;102522.94;;;14.83;51.07
77639;BME280;66802;52.574;14.398;2023-05-07T14:03:58;102520.63;;;14.69;51.79
77639;BME280;66802;52.574;14.398;2023-05-07T14:06:25;102524.47;;;14.66;52.79
77639;BME280;66802;52.574;14.398;2023-05-07T14:08:51;102527.81;;;14.79;50.59
77639;BME280;66802;52.574;14.398;2023-05-07T14:11:17;102530.00;;;14.95;50.37
77639;BME280;66802;52.574;14.398;2023-05-07T14:13:42;102524.91;;;15.11;50.34
77639;BME280;66802;52.574;14.398;2023-05-07T14:16:08;102530.47;;;15.00;50.87
77639;BME280;66802;52.574;14.398;2023-05-07T14:18:33;102528.28;;;15.04;51.10
77639;BME280;66802;52.574;14.398;2023-05-07T14:21:00;102529.63;;;15.09;50.58
77639;BME280;66802;52.574;14.398;2023-05-07T14:23:26;102522.91;;;15.23;49.20
77639;BME280;66802;52.574;14.398;2023-05-07T14:25:54;102528.91;;;15.26;51.10
77639;BME280;66802;52.574;14.398;2023-05-07T14:28:21;102535.22;;;15.37;49.71
77639;BME280;66802;52.574;14.398;2023-05-07T14:30:47;102537.31;;;15.04;48.84
77639;BME280;66802;52.574;14.398;2023-05-07T14:33:13;102537.88;;;14.98;49.52
77639;BME280;66802;52.574;14.398;2023-05-07T14:35:39;102529.44;;;14.91;50.25
77639;BME280;66802;52.574;14.398;2023-05-07T14:38:04;102529.47;;;15.11;48.81
77639;BME280;66802;52.574;14.398;2023-05-07T14:40:30;102536.31;;;15.05;50.05
77639;BME280;66802;52.574;14.398;2023-05-07T14:42:55;102539.19;;;15.04;49.52
77639;BME280;66802;52.574;14.398;2023-05-07T14:45:22;102538.16;;;14.95;50.76
77639;BME280;66802;52.574;14.398;2023-05-07T14:47:48;102534.22;;;15.18;50.32
77639;BME280;66802;52.574;14.398;2023-05-07T14:50:13;102543.41;;;14.77;50.96
77639;BME280;66802;52.574;14.398;2023-05-07T14:52:39;102551.41;;;14.69;50.97
77639;BME280;66802;52.574;14.398;2023-05-07T14:55:05;102557.31;;;14.53;51.88
77639;BME280;66802;52.574;14.398;2023-05-07T14:57:31;102548.22;;;14.64;51.69
77639;BME280;66802;52.574;14.398;2023-05-07T15:00:01;102550.44;;;14.80;51.63
77639;BME280;66802;52.574;14.398;2023-05-07T15:02:27;102567.38;;;14.63;51.36
77639;BME280;66802;52.574;14.398;2023-05-07T15:04:52;102571.72;;;14.44;51.69
77639;BME280;66802;52.574;14.398;2023-05-07T15:07:18;102570.19;;;14.51;51.25
77639;BME280;66802;52.574;14.398;2023-05-07T15:09:44;102572.38;;;14.37;51.85
77639;BME280;66802;52.574;14.398;2023-05-07T15:12:10;102573.06;;;14.39;51.75
77639;BME280;66802;52.574;14.398;2023-05-07T15:14:37;102574.34;;;14.35;52.31
77639;BME280;66802;52.574;14.398;2023-05-07T15:17:03;102568.75;;;14.47;51.99
77639;BME280;66802;52.574;14.398;2023-05-07T15:19:29;102567.75;;;14.48;51.63
77639;BME280;66802;52.574;14.398;2023-05-07T15:21:59;102572.72;;;14.43;52.75
77639;BME280;66802;52.574;14.398;2023-05-07T15:24:28;102578.19;;;14.32;52.34
77639;BME280;66802;52.574;14.398;2023-05-07T15:26:54;102571.25;;;14.39;51.25
77639;BME280;66802;52.574;14.398;2023-05-07T15:29:19;102585.31;;;14.44;52.09
77639;BME280;66802;52.574;14.398;2023-05-07T15:31:46;102573.44;;;14.45;52.39
77639;BME280;66802;52.574;14.398;2023-05-07T15:34:11;102573.09;;;14.59;51.69
77639;BME280;66802;52.574;14.398;2023-05-07T15:36:37;102582.00;;;14.71;51.06
77639;BME280;66802;52.574;14.398;2023-05-07T15:39:02;102580.56;;;14.67;51.12
77639;BME280;66802;52.574;14.398;2023-05-07T15:41:29;102580.53;;;14.57;51.11
77639;BME280;66802;52.574;14.398;2023-05-07T15:43:55;102576.91;;;14.47;50.90
77639;BME280;66802;52.574;14.398;2023-05-07T15:46:23;102577.69;;;14.38;50.34
77639;BME280;66802;52.574;14.398;2023-05-07T15:48:50;102584.31;;;14.45;50.40